createdAt,value
2018-12-08T00:02:26.831Z,51.00
2018-12-08T00:04:54.291Z,51.30
2018-12-08T00:07:21.736Z,52.00
2018-12-08T00:09:49.184Z,50.80
2018-12-08T00:12:16.673Z,51.40
2018-12-08T00:14:44.100Z,51.30
2018-12-08T00:17:11.533Z,50.70
2018-12-08T00:19:39.004Z,51.00
2018-12-08T00:22:06.476Z,51.60
2018-12-08T00:24:33.916Z,51.60
2018-12-08T00:27:01.378Z,51.60
2018-12-08T00:29:28.816Z,50.50
2018-12-08T00:31:56.245Z,51.20
2018-12-08T00:34:23.690Z,50.60
2018-12-08T00:36:51.134Z,51.40
2018-12-08T00:39:18.593Z,51.60
2018-12-08T00:41:46.076Z,51.50
2018-12-08T00:44:13.545Z,51.50
2018-12-08T00:46:41.062Z,50.60
2018-12-08T00:49:08.629Z,50.40
2018-12-08T00:51:36.121Z,49.30
2018-12-08T00:54:06.374Z,48.70
2018-12-08T00:56:34.248Z,48.90
2018-12-08T00:59:01.750Z,48.20
2018-12-08T01:01:29.962Z,48.70
2018-12-08T01:03:57.696Z,48.50
2018-12-08T01:06:25.126Z,48.80
2018-12-08T01:08:52.533Z,51.90
2018-12-08T01:11:20.009Z,54.20
2018-12-08T01:13:47.456Z,54.90
2018-12-08T01:16:14.891Z,55.10
2018-12-08T01:18:42.333Z,55.40
2018-12-08T01:21:09.788Z,55.40
2018-12-08T01:23:37.257Z,55.30
2018-12-08T01:26:04.816Z,55.30
2018-12-08T01:28:32.323Z,55.10
2018-12-08T01:30:59.808Z,54.20
2018-12-08T01:33:27.277Z,53.80
2018-12-08T01:35:54.759Z,52.80
2018-12-08T01:38:22.244Z,52.70
2018-12-08T01:40:49.764Z,51.60
2018-12-08T01:43:17.243Z,51.40
2018-12-08T01:45:44.712Z,51.10
2018-12-08T01:48:12.146Z,51.40
2018-12-08T01:50:39.605Z,51.30
2018-12-08T01:53:07.150Z,50.50
2018-12-08T01:55:34.631Z,50.40
2018-12-08T01:58:02.049Z,50.40
2018-12-08T02:00:29.497Z,50.00
2018-12-08T02:02:57.004Z,49.90
2018-12-08T02:05:24.528Z,49.10
2018-12-08T02:07:52.008Z,49.20
2018-12-08T02:10:19.514Z,49.70
2018-12-08T02:12:46.978Z,49.20
2018-12-08T02:15:14.402Z,49.40
2018-12-08T02:17:41.864Z,48.90
2018-12-08T02:20:09.333Z,49.50
2018-12-08T02:22:36.760Z,49.30
2018-12-08T02:25:04.702Z,49.20
2018-12-08T02:27:32.164Z,49.80
2018-12-08T02:29:59.671Z,49.50
2018-12-08T02:32:27.162Z,50.20
2018-12-08T02:34:54.596Z,49.20
2018-12-08T02:37:22.074Z,49.70
2018-12-08T02:39:49.492Z,49.80
2018-12-08T02:42:16.966Z,49.80
2018-12-08T02:44:44.453Z,49.50
2018-12-08T02:47:11.960Z,49.50
2018-12-08T02:49:39.390Z,49.80
2018-12-08T02:52:06.830Z,49.60
2018-12-08T02:54:34.280Z,50.00
2018-12-08T02:57:01.755Z,51.40
2018-12-08T02:59:29.216Z,52.70
2018-12-08T03:01:56.652Z,53.90
2018-12-08T03:04:24.128Z,55.80
2018-12-08T03:06:51.605Z,56.80
2018-12-08T03:09:20.079Z,55.50
2018-12-08T03:11:47.504Z,56.10
2018-12-08T03:14:14.977Z,56.10
2018-12-08T03:16:42.449Z,56.20
2018-12-08T03:19:09.907Z,53.80
2018-12-08T03:21:37.378Z,54.30
2018-12-08T03:24:04.804Z,54.00
2018-12-08T03:26:32.304Z,53.50
2018-12-08T03:28:59.781Z,52.30
2018-12-08T03:31:27.194Z,52.10
2018-12-08T03:33:54.644Z,52.80
2018-12-08T03:36:22.081Z,52.50
2018-12-08T03:38:49.559Z,52.20
2018-12-08T03:41:17.015Z,52.50
2018-12-08T03:43:44.523Z,52.60
2018-12-08T03:46:11.975Z,53.70
2018-12-08T03:48:39.391Z,54.00
2018-12-08T03:51:06.831Z,53.90
2018-12-08T03:53:34.261Z,54.50
2018-12-08T03:56:01.779Z,54.50
2018-12-08T03:58:29.205Z,54.50
2018-12-08T04:00:56.649Z,54.80
2018-12-08T04:03:24.182Z,54.80
2018-12-08T04:05:51.591Z,55.00
2018-12-08T04:08:19.030Z,55.50
2018-12-08T04:10:46.516Z,55.90
2018-12-08T04:13:14.012Z,56.30
2018-12-08T04:15:41.437Z,56.70
2018-12-08T04:18:08.877Z,56.90
2018-12-08T04:20:36.301Z,57.20
2018-12-08T04:23:03.734Z,57.20
2018-12-08T04:25:31.157Z,57.50
2018-12-08T04:27:58.641Z,57.40
2018-12-08T04:30:26.089Z,57.80
2018-12-08T04:32:53.531Z,57.50
2018-12-08T04:35:20.982Z,57.70
2018-12-08T04:37:48.445Z,58.00
2018-12-08T04:40:15.964Z,58.00
2018-12-08T04:42:43.402Z,57.90
2018-12-08T04:45:10.861Z,57.90
2018-12-08T04:47:38.372Z,57.90
2018-12-08T04:50:05.925Z,57.40
2018-12-08T04:52:33.372Z,57.80
2018-12-08T04:55:00.807Z,57.70
2018-12-08T04:57:28.486Z,58.00
2018-12-08T04:59:55.927Z,57.50
2018-12-08T05:02:23.463Z,57.40
2018-12-08T05:04:50.941Z,57.40
2018-12-08T05:07:18.444Z,57.00
2018-12-08T05:09:45.875Z,57.00
2018-12-08T05:12:13.393Z,56.60
2018-12-08T05:14:40.855Z,56.30
2018-12-08T05:17:08.336Z,55.90
2018-12-08T05:19:35.760Z,55.60
2018-12-08T05:22:03.268Z,55.60
2018-12-08T05:24:30.717Z,55.50
2018-12-08T05:26:58.185Z,54.60
2018-12-08T05:29:25.626Z,54.70
2018-12-08T05:31:53.099Z,54.90
2018-12-08T05:34:20.553Z,55.10
2018-12-08T05:36:48.021Z,54.60
2018-12-08T05:39:15.499Z,54.50
2018-12-08T05:41:42.928Z,54.20
2018-12-08T05:44:10.371Z,54.10
2018-12-08T05:46:37.813Z,53.60
2018-12-08T05:49:05.274Z,54.30
2018-12-08T05:51:32.757Z,53.70
2018-12-08T05:54:00.192Z,53.40
2018-12-08T05:56:27.701Z,53.00
2018-12-08T05:58:55.158Z,53.10
2018-12-08T06:01:22.584Z,53.00
2018-12-08T06:03:50.065Z,52.50
2018-12-08T06:06:17.537Z,52.70
2018-12-08T06:08:45.005Z,52.50
2018-12-08T06:11:12.478Z,52.20
2018-12-08T06:13:39.908Z,52.30
2018-12-08T06:16:07.374Z,52.00
2018-12-08T06:18:34.850Z,52.10
2018-12-08T06:21:02.287Z,52.40
2018-12-08T06:23:29.767Z,52.40
2018-12-08T06:25:57.282Z,52.40
2018-12-08T06:28:24.712Z,52.50
2018-12-08T06:30:52.142Z,53.30
2018-12-08T06:33:19.666Z,52.90
2018-12-08T06:35:47.081Z,52.60
2018-12-08T06:38:14.525Z,53.10
2018-12-08T06:40:41.989Z,52.90
2018-12-08T06:43:09.507Z,52.90
2018-12-08T06:45:36.925Z,52.90
2018-12-08T06:48:04.474Z,53.00
2018-12-08T06:50:31.977Z,53.20
2018-12-08T06:53:00.935Z,52.90
2018-12-08T06:55:28.749Z,52.90
2018-12-08T06:57:56.259Z,52.80
2018-12-08T07:00:23.732Z,52.80
2018-12-08T07:02:51.176Z,52.80
2018-12-08T07:05:18.605Z,53.00
2018-12-08T07:07:46.125Z,52.90
2018-12-08T07:10:13.586Z,52.50
2018-12-08T07:12:41.012Z,52.30
2018-12-08T07:15:08.618Z,52.10
2018-12-08T07:17:36.090Z,51.80
2018-12-08T07:20:03.944Z,51.60
2018-12-08T07:22:31.368Z,51.40
2018-12-08T07:24:58.792Z,51.40
2018-12-08T07:27:26.252Z,51.30
2018-12-08T07:29:53.746Z,52.20
2018-12-08T07:32:21.168Z,51.70
2018-12-08T07:34:48.644Z,51.10
2018-12-08T07:37:16.122Z,48.30
2018-12-08T07:39:43.576Z,48.30
2018-12-08T07:42:11.009Z,48.00
2018-12-08T07:44:38.532Z,48.10
2018-12-08T07:47:05.973Z,47.70
2018-12-08T07:49:33.434Z,47.30
2018-12-08T07:52:00.934Z,46.80
2018-12-08T07:54:28.372Z,46.90
2018-12-08T07:56:55.813Z,46.80
2018-12-08T07:59:23.256Z,46.40
2018-12-08T08:01:50.743Z,46.00
2018-12-08T08:04:18.169Z,45.60
2018-12-08T08:06:45.616Z,45.80
2018-12-08T08:09:13.083Z,45.50
2018-12-08T08:11:40.542Z,45.60
2018-12-08T08:14:07.977Z,45.20
2018-12-08T08:16:35.412Z,45.50
2018-12-08T08:19:03.532Z,45.30
2018-12-08T08:21:31.109Z,45.10
2018-12-08T08:23:58.705Z,45.10
2018-12-08T08:26:26.148Z,45.40
2018-12-08T08:28:53.585Z,45.30
2018-12-08T08:31:21.055Z,44.70
2018-12-08T08:33:48.529Z,44.40
2018-12-08T08:36:16.011Z,44.70
2018-12-08T08:38:43.448Z,44.50
2018-12-08T08:41:10.919Z,43.90
2018-12-08T08:43:38.371Z,43.50
2018-12-08T08:46:05.856Z,43.30
2018-12-08T08:48:33.341Z,43.50
2018-12-08T08:51:00.827Z,43.40
2018-12-08T08:53:30.265Z,43.50
2018-12-08T08:55:57.720Z,42.70
2018-12-08T08:58:25.148Z,42.70
2018-12-08T09:00:52.627Z,43.00
2018-12-08T09:03:20.084Z,42.80
2018-12-08T09:05:47.569Z,43.00
2018-12-08T09:08:14.997Z,43.10
2018-12-08T09:10:42.476Z,43.10
2018-12-08T09:13:09.949Z,43.20
2018-12-08T09:15:37.546Z,42.70
2018-12-08T09:18:04.990Z,42.50
2018-12-08T09:20:32.450Z,42.50
2018-12-08T09:22:59.912Z,42.60
2018-12-08T09:25:27.353Z,42.50
2018-12-08T09:27:54.797Z,42.10
2018-12-08T09:30:22.277Z,42.20
2018-12-08T09:32:49.769Z,42.10
2018-12-08T09:35:17.231Z,41.40
2018-12-08T09:37:44.668Z,41.00
2018-12-08T09:40:12.141Z,40.40
2018-12-08T09:42:39.596Z,39.50
2018-12-08T09:45:07.139Z,39.70
2018-12-08T09:47:34.682Z,39.40
2018-12-08T09:50:02.384Z,39.60
2018-12-08T09:52:29.865Z,39.10
2018-12-08T09:54:57.383Z,38.80
2018-12-08T09:57:24.821Z,38.20
2018-12-08T09:59:52.276Z,38.10
2018-12-08T10:02:19.734Z,37.90
2018-12-08T10:04:47.230Z,38.30
2018-12-08T10:07:14.689Z,38.40
2018-12-08T10:09:42.107Z,38.60
2018-12-08T10:12:09.581Z,38.10
2018-12-08T10:14:37.037Z,38.30
2018-12-08T10:17:04.489Z,38.50
2018-12-08T10:19:31.949Z,38.20
2018-12-08T10:21:59.440Z,38.60
2018-12-08T10:24:26.899Z,38.20
2018-12-08T10:26:54.420Z,38.00
2018-12-08T10:29:21.936Z,37.70
2018-12-08T10:31:49.400Z,38.00
2018-12-08T10:34:16.968Z,38.50
2018-12-08T10:36:44.420Z,38.40
2018-12-08T10:39:11.844Z,39.10
2018-12-08T10:41:39.318Z,39.20
2018-12-08T10:44:06.816Z,39.10
2018-12-08T10:46:34.305Z,39.20
2018-12-08T10:49:01.780Z,39.60
2018-12-08T10:51:29.288Z,39.70
2018-12-08T10:53:56.743Z,40.10
2018-12-08T10:56:24.180Z,39.50
2018-12-08T10:58:51.644Z,39.80
2018-12-08T11:01:21.085Z,39.80
2018-12-08T11:03:48.547Z,39.70
2018-12-08T11:06:16.988Z,39.60
2018-12-08T11:08:44.863Z,39.70
2018-12-08T11:11:12.322Z,40.00
2018-12-08T11:13:39.763Z,40.10
2018-12-08T11:16:07.328Z,40.80
2018-12-08T11:18:34.790Z,40.60
2018-12-08T11:21:02.415Z,40.30
2018-12-08T11:23:29.896Z,40.30
2018-12-08T11:25:57.532Z,40.10
2018-12-08T11:28:25.001Z,39.80
2018-12-08T11:30:52.448Z,40.80
2018-12-08T11:33:19.957Z,40.60
2018-12-08T11:35:47.481Z,40.00
2018-12-08T11:38:15.025Z,40.30
2018-12-08T11:40:42.519Z,40.10
2018-12-08T11:43:09.989Z,40.10
2018-12-08T11:45:37.438Z,40.20
2018-12-08T11:48:04.876Z,40.20
2018-12-08T11:50:32.331Z,40.20
2018-12-08T11:52:59.781Z,40.20
2018-12-08T11:55:30.429Z,40.80
2018-12-08T11:57:57.095Z,41.90
2018-12-08T12:00:24.602Z,42.50
2018-12-08T12:02:52.063Z,42.30
2018-12-08T12:05:19.562Z,41.60
2018-12-08T12:07:46.998Z,41.80
2018-12-08T12:10:14.506Z,41.30
2018-12-08T12:12:41.982Z,40.30
2018-12-08T12:15:09.417Z,41.00
2018-12-08T12:17:36.891Z,40.10
2018-12-08T12:20:06.467Z,40.50
2018-12-08T12:22:34.025Z,40.60
2018-12-08T12:25:02.207Z,40.50
2018-12-08T12:27:29.789Z,40.80
2018-12-08T12:29:57.287Z,40.70
2018-12-08T12:32:24.719Z,40.80
2018-12-08T12:34:52.180Z,41.50
2018-12-08T12:37:19.628Z,42.30
2018-12-08T12:39:47.178Z,42.80
2018-12-08T12:42:14.635Z,42.80
2018-12-08T12:44:42.121Z,42.80
2018-12-08T12:47:09.559Z,42.20
2018-12-08T12:49:37.020Z,42.20
2018-12-08T12:52:04.472Z,42.50
2018-12-08T12:54:31.916Z,42.00
2018-12-08T12:56:59.444Z,41.70
2018-12-08T12:59:26.924Z,41.80
2018-12-08T13:01:54.864Z,41.70
2018-12-08T13:04:22.313Z,41.30
2018-12-08T13:06:49.757Z,41.70
2018-12-08T13:09:17.221Z,41.70
2018-12-08T13:11:45.501Z,41.80
2018-12-08T13:14:13.309Z,41.80
2018-12-08T13:16:41.232Z,42.10
2018-12-08T13:19:08.735Z,41.90
2018-12-08T13:21:36.204Z,41.70
2018-12-08T13:24:03.733Z,42.10
2018-12-08T13:26:31.164Z,42.10
2018-12-08T13:28:58.671Z,42.60
2018-12-08T13:31:26.114Z,42.70
2018-12-08T13:33:53.632Z,42.90
2018-12-08T13:36:21.092Z,42.30
2018-12-08T13:38:48.608Z,42.80
2018-12-08T13:41:16.118Z,42.70
2018-12-08T13:43:47.476Z,42.80
2018-12-08T13:46:14.912Z,43.10
2018-12-08T13:48:42.410Z,43.50
2018-12-08T13:51:09.836Z,43.50
2018-12-08T13:53:37.371Z,43.70
2018-12-08T13:56:04.940Z,44.70
2018-12-08T13:58:32.395Z,44.30
2018-12-08T14:00:59.874Z,44.10
2018-12-08T14:03:27.383Z,44.20
2018-12-08T14:05:54.820Z,44.20
2018-12-08T14:08:22.272Z,44.50
2018-12-08T14:10:49.726Z,44.30
2018-12-08T14:13:17.162Z,44.40
2018-12-08T14:15:44.588Z,44.90
2018-12-08T14:18:12.191Z,45.60
2018-12-08T14:20:39.726Z,45.80
2018-12-08T14:23:07.200Z,47.00
2018-12-08T14:25:34.627Z,47.50
2018-12-08T14:28:02.304Z,48.50
2018-12-08T14:30:29.875Z,49.20
2018-12-08T14:32:57.386Z,49.20
2018-12-08T14:35:24.880Z,48.40
2018-12-08T14:37:52.318Z,49.00
2018-12-08T14:40:19.763Z,49.50
2018-12-08T14:42:47.204Z,49.40
2018-12-08T14:45:14.770Z,49.10
2018-12-08T14:47:42.192Z,48.80
2018-12-08T14:50:09.892Z,48.60
2018-12-08T14:52:37.369Z,48.70
2018-12-08T14:55:05.058Z,49.00
2018-12-08T14:57:32.503Z,48.90
2018-12-08T14:59:59.958Z,48.80
2018-12-08T15:02:27.422Z,48.70
2018-12-08T15:04:55.257Z,48.80
2018-12-08T15:07:23.142Z,48.80
2018-12-08T15:09:50.628Z,48.60
2018-12-08T15:12:18.073Z,48.80
2018-12-08T15:14:45.573Z,48.80
2018-12-08T15:17:13.040Z,48.60
2018-12-08T15:19:40.525Z,48.60
2018-12-08T15:22:07.973Z,48.70
2018-12-08T15:24:35.415Z,48.60
2018-12-08T15:27:02.897Z,48.60
2018-12-08T15:29:30.333Z,48.10
2018-12-08T15:31:57.777Z,48.40
2018-12-08T15:34:25.259Z,49.30
2018-12-08T15:36:53.081Z,48.60
2018-12-08T15:39:20.541Z,48.60
2018-12-08T15:41:47.994Z,48.70
2018-12-08T15:44:15.581Z,48.70
2018-12-08T15:46:43.023Z,48.80
2018-12-08T15:49:10.467Z,48.90
2018-12-08T15:51:37.932Z,49.10
2018-12-08T15:54:05.479Z,49.00
2018-12-08T15:56:32.968Z,49.20
2018-12-08T15:59:00.417Z,49.30
2018-12-08T16:01:27.888Z,49.30
2018-12-08T16:03:55.400Z,49.10
2018-12-08T16:06:22.916Z,49.30
2018-12-08T16:08:50.384Z,49.20
2018-12-08T16:11:17.837Z,49.30
2018-12-08T16:13:45.302Z,49.50
2018-12-08T16:16:12.755Z,49.40
2018-12-08T16:18:40.190Z,49.30
2018-12-08T16:21:07.689Z,49.50
2018-12-08T16:23:35.183Z,50.00
2018-12-08T16:26:02.649Z,50.60
2018-12-08T16:28:30.102Z,50.60
2018-12-08T16:30:57.636Z,50.50
2018-12-08T16:33:25.100Z,50.50
2018-12-08T16:35:52.612Z,50.40
2018-12-08T16:38:20.070Z,50.50
2018-12-08T16:40:47.703Z,50.30
2018-12-08T16:43:15.301Z,50.60
2018-12-08T16:45:42.756Z,50.60
2018-12-08T16:48:10.411Z,50.60
2018-12-08T16:50:37.957Z,50.50
2018-12-08T16:53:05.507Z,50.70
2018-12-08T16:55:33.031Z,51.30
2018-12-08T16:58:00.609Z,50.60
2018-12-08T17:00:28.108Z,50.70
2018-12-08T17:02:55.632Z,50.70
2018-12-08T17:05:23.093Z,50.70
2018-12-08T17:07:50.795Z,51.00
2018-12-08T17:10:19.051Z,51.10
2018-12-08T17:12:46.511Z,53.10
2018-12-08T17:15:14.331Z,51.10
2018-12-08T17:17:41.845Z,51.30
2018-12-08T17:20:09.338Z,51.80
2018-12-08T17:22:36.813Z,51.60
2018-12-08T17:25:04.916Z,51.20
2018-12-08T17:27:32.476Z,51.10
2018-12-08T17:29:59.951Z,51.30
2018-12-08T17:32:27.398Z,51.50
2018-12-08T17:34:54.899Z,51.70
2018-12-08T17:37:22.486Z,51.80
2018-12-08T17:40:01.190Z,51.60
2018-12-08T17:42:29.001Z,51.60
2018-12-08T17:44:56.724Z,51.60
2018-12-08T17:47:24.208Z,51.40
2018-12-08T17:49:51.766Z,51.40
2018-12-08T17:52:19.351Z,51.70
2018-12-08T17:54:48.789Z,51.40
2018-12-08T17:57:16.271Z,51.40
2018-12-08T17:59:44.055Z,51.00
2018-12-08T18:02:12.410Z,51.10
2018-12-08T18:04:40.087Z,51.40
2018-12-08T18:07:07.656Z,51.10
2018-12-08T18:09:35.213Z,51.20
2018-12-08T18:12:02.763Z,51.00
2018-12-08T18:14:30.222Z,50.80
2018-12-08T18:16:57.674Z,50.50
2018-12-08T18:19:25.124Z,50.30
2018-12-08T18:21:52.601Z,50.40
2018-12-08T18:24:20.121Z,50.40
2018-12-08T18:26:47.670Z,50.10
2018-12-08T18:29:15.132Z,50.00
2018-12-08T18:31:42.648Z,49.80
2018-12-08T18:34:10.103Z,49.60
2018-12-08T18:36:37.609Z,49.60
2018-12-08T18:39:05.987Z,49.60
2018-12-08T18:41:33.474Z,49.30
2018-12-08T18:44:00.954Z,49.50
2018-12-08T18:46:28.397Z,50.00
2018-12-08T18:48:55.880Z,49.70
2018-12-08T18:51:23.467Z,49.70
2018-12-08T18:53:50.925Z,49.40
2018-12-08T18:56:18.441Z,49.20
2018-12-08T18:58:46.227Z,49.20
2018-12-08T19:01:13.704Z,49.30
2018-12-08T19:03:41.131Z,49.20
2018-12-08T19:06:08.656Z,49.10
2018-12-08T19:08:36.141Z,49.00
2018-12-08T19:11:03.735Z,48.90
2018-12-08T19:13:31.272Z,49.20
2018-12-08T19:15:58.869Z,48.80
2018-12-08T19:18:26.376Z,48.70
2018-12-08T19:20:53.926Z,48.70
2018-12-08T19:23:21.392Z,48.70
2018-12-08T19:25:50.861Z,48.70
2018-12-08T19:28:18.375Z,48.40
2018-12-08T19:30:45.825Z,48.40
2018-12-08T19:33:14.697Z,48.40
2018-12-08T19:35:45.617Z,48.10
2018-12-08T19:38:13.065Z,47.90
2018-12-08T19:40:40.555Z,47.80
2018-12-08T19:43:08.010Z,47.90
2018-12-08T19:45:35.525Z,48.20
2018-12-08T19:48:03.032Z,48.10
2018-12-08T19:50:31.204Z,48.00
2018-12-08T19:52:58.635Z,48.20
2018-12-08T19:55:26.159Z,48.30
2018-12-08T19:57:53.591Z,48.30
2018-12-08T20:00:21.124Z,48.30
2018-12-08T20:02:48.604Z,48.50
2018-12-08T20:05:16.138Z,48.50
2018-12-08T20:07:43.598Z,48.50
2018-12-08T20:10:11.110Z,48.50
2018-12-08T20:12:38.609Z,48.60
2018-12-08T20:15:08.220Z,48.40
2018-12-08T20:17:35.677Z,48.40
2018-12-08T20:20:04.049Z,48.80
2018-12-08T20:22:31.581Z,48.70
2018-12-08T20:24:59.079Z,49.10
2018-12-08T20:27:26.645Z,49.20
2018-12-08T20:29:54.092Z,49.10
2018-12-08T20:32:21.557Z,49.30
2018-12-08T20:34:48.992Z,49.40
2018-12-08T20:37:16.444Z,49.50
2018-12-08T20:39:43.909Z,49.60
2018-12-08T20:42:11.344Z,49.60
2018-12-08T20:44:39.519Z,49.70
2018-12-08T20:47:06.971Z,49.80
2018-12-08T20:49:34.382Z,49.90
2018-12-08T20:52:01.868Z,50.10
2018-12-08T20:54:29.321Z,50.50
2018-12-08T20:56:56.776Z,50.70
2018-12-08T20:59:24.229Z,51.00
2018-12-08T21:01:51.823Z,51.20
2018-12-08T21:04:19.359Z,51.40
2018-12-08T21:06:46.861Z,51.80
2018-12-08T21:09:14.351Z,52.20
2018-12-08T21:11:41.797Z,52.40
2018-12-08T21:14:09.235Z,52.50
2018-12-08T21:16:37.557Z,52.40
2018-12-08T21:19:05.049Z,53.20
2018-12-08T21:21:32.654Z,52.50
2018-12-08T21:24:00.977Z,52.60
2018-12-08T21:26:28.898Z,52.40
2018-12-08T21:28:56.376Z,53.00
2018-12-08T21:31:23.830Z,52.40
2018-12-08T21:33:51.460Z,52.20
2018-12-08T21:36:19.066Z,52.30
2018-12-08T21:38:46.554Z,52.50
2018-12-08T21:41:13.991Z,53.40
2018-12-08T21:43:41.443Z,53.50
2018-12-08T21:46:08.993Z,53.30
2018-12-08T21:48:36.434Z,53.20
2018-12-08T21:51:03.945Z,53.00
2018-12-08T21:53:31.606Z,53.70
2018-12-08T21:55:59.946Z,55.40
2018-12-08T21:58:27.614Z,57.60
2018-12-08T22:00:55.063Z,57.90
2018-12-08T22:03:22.657Z,58.40
2018-12-08T22:05:50.221Z,58.80
2018-12-08T22:08:17.683Z,58.50
2018-12-08T22:10:45.120Z,58.40
2018-12-08T22:13:12.574Z,58.20
2018-12-08T22:15:40.093Z,58.10
2018-12-08T22:18:07.662Z,58.20
2018-12-08T22:20:35.237Z,57.60
2018-12-08T22:23:02.696Z,57.30
2018-12-08T22:25:30.171Z,57.00
2018-12-08T22:27:57.636Z,56.50
2018-12-08T22:30:25.110Z,56.80
2018-12-08T22:32:52.658Z,57.00
2018-12-08T22:35:20.102Z,56.80
2018-12-08T22:37:47.573Z,56.90
2018-12-08T22:40:18.136Z,57.10
2018-12-08T22:42:45.705Z,57.30
2018-12-08T22:45:13.356Z,57.80
2018-12-08T22:47:40.954Z,57.50
2018-12-08T22:50:09.353Z,57.10
2018-12-08T22:52:36.846Z,57.40
2018-12-08T22:55:04.483Z,57.20
2018-12-08T22:57:31.972Z,57.10
2018-12-08T22:59:59.418Z,57.10
2018-12-08T23:02:26.913Z,57.20
2018-12-08T23:04:54.343Z,57.30
2018-12-08T23:07:21.786Z,57.60
2018-12-08T23:09:49.262Z,57.50
2018-12-08T23:12:18.846Z,57.70
2018-12-08T23:14:47.190Z,57.60
2018-12-08T23:17:14.681Z,59.00
2018-12-08T23:19:42.196Z,58.30
2018-12-08T23:22:10.122Z,58.70
2018-12-08T23:24:37.604Z,59.50
2018-12-08T23:27:05.192Z,59.90
2018-12-08T23:29:33.765Z,59.90
2018-12-08T23:32:01.241Z,60.70
2018-12-08T23:34:28.689Z,62.00
2018-12-08T23:36:56.190Z,61.70
2018-12-08T23:39:23.628Z,61.90
2018-12-08T23:41:51.091Z,61.30
2018-12-08T23:44:18.547Z,61.60
2018-12-08T23:46:46.096Z,61.30
2018-12-08T23:49:13.637Z,60.90
2018-12-08T23:51:41.134Z,61.90
2018-12-08T23:54:08.587Z,61.60
2018-12-08T23:56:36.036Z,60.30
2018-12-08T23:59:03.667Z,60.00
